Time;durP1;ratioP1;P1;durP2;ratioP2;P2;SDS_P1;SDS_P2;PMS_P1;PMS_P2;Temp;Humidity;BMP_temperature;BMP_pressure;BME280_temperature;BME280_humidity;BME280_pressure;Samples;Min_cycle;Max_cycle;Signal;HPM_P1;HPM_P2
2022/06/29 00:00:24;;;;;;;9.98;5.85;;;;;;;23.75;66.68;99341.02;1770280;81;21414;-67
2022/06/29 00:02:50;;;;;;;5.65;5.12;;;;;;;23.77;66.83;99337.50;1750078;79;21130;-66
2022/06/29 00:05:20;;;;;;;7.08;6.00;;;;;;;23.80;66.74;99335.06;1739789;81;21413;-66
2022/06/29 00:07:47;;;;;;;12.07;6.15;;;;;;;23.81;66.61;99340.78;1772164;81;20888;-67
2022/06/29 00:10:14;;;;;;;9.60;6.50;;;;;;;23.81;66.78;99337.25;1773739;79;20915;-67
2022/06/29 00:12:42;;;;;;;6.78;6.08;;;;;;;23.81;66.63;99337.25;1756134;79;20953;-66
2022/06/29 00:15:11;;;;;;;10.23;6.37;;;;;;;23.79;66.70;99340.77;1746517;81;21976;-67
2022/06/29 00:17:38;;;;;;;11.40;6.40;;;;;;;23.76;66.84;99340.75;1756703;81;20965;-67
2022/06/29 00:20:06;;;;;;;9.50;6.65;;;;;;;23.78;66.83;99345.91;1753721;80;20875;-70
2022/06/29 00:22:35;;;;;;;7.12;6.40;;;;;;;23.80;66.92;99343.77;1732678;81;20875;-67
2022/06/29 00:25:02;;;;;;;8.10;6.55;;;;;;;23.82;66.75;99334.83;1732436;81;20966;-67
2022/06/29 00:27:29;;;;;;;6.78;6.08;;;;;;;23.81;66.50;99334.00;1751673;81;21174;-67
2022/06/29 00:29:55;;;;;;;8.73;6.85;;;;;;;23.78;66.26;99330.97;1754069;81;20984;-69
2022/06/29 00:32:22;;;;;;;13.10;6.55;;;;;;;23.74;66.34;99338.02;1746232;81;20966;-66
2022/06/29 00:34:48;;;;;;;7.97;6.37;;;;;;;23.69;66.40;99342.87;1732958;81;21021;-65
2022/06/29 00:37:14;;;;;;;6.22;5.72;;;;;;;23.58;66.26;99343.84;1757730;81;20872;-66
2022/06/29 00:39:41;;;;;;;6.12;5.60;;;;;;;23.46;66.16;99338.30;1742720;80;21570;-69
2022/06/29 00:42:08;;;;;;;9.20;6.00;;;;;;;23.29;66.19;99336.48;1757975;81;20959;-70
2022/06/29 00:44:35;;;;;;;7.80;5.92;;;;;;;23.20;66.77;99335.84;1736377;81;20919;-69
2022/06/29 00:47:04;;;;;;;10.48;7.12;;;;;;;23.14;67.28;99328.71;1754951;80;20937;-66
2022/06/29 00:49:32;;;;;;;12.45;7.58;;;;;;;23.09;67.79;99326.77;1761548;80;21009;-70
2022/06/29 00:52:06;;;;;;;13.00;7.37;;;;;;;23.09;68.54;99330.84;1787069;80;21144;-69
2022/06/29 00:54:37;;;;;;;9.53;7.08;;;;;;;23.06;69.10;99327.28;1771926;79;20882;-66
2022/06/29 00:57:08;;;;;;;13.68;7.80;;;;;;;23.05;69.63;99325.63;1775062;80;20858;-67
2022/06/29 00:59:45;;;;;;;8.25;6.25;;;;;;;23.04;70.05;99332.14;1769271;80;20967;-68
2022/06/29 01:02:13;;;;;;;9.10;7.33;;;;;;;23.04;70.21;99334.03;1761513;80;20969;-70
2022/06/29 01:04:40;;;;;;;8.63;6.45;;;;;;;23.03;70.43;99333.73;1761782;80;21243;-66
2022/06/29 01:07:07;;;;;;;6.80;6.20;;;;;;;23.01;70.27;99332.64;1788831;80;20875;-66
2022/06/29 01:09:34;;;;;;;12.10;7.40;;;;;;;22.96;70.16;99329.87;1792993;79;20883;-66
2022/06/29 01:12:01;;;;;;;7.87;6.95;;;;;;;22.93;70.16;99320.06;1770928;80;21086;-67
2022/06/29 01:14:28;;;;;;;9.95;6.28;;;;;;;22.91;70.09;99328.47;1780202;80;21514;-68
2022/06/29 01:16:55;;;;;;;11.12;6.87;;;;;;;22.88;70.13;99330.33;1778521;80;21857;-66
2022/06/29 01:19:23;;;;;;;11.68;6.22;;;;;;;22.86;70.24;99335.72;1761428;80;20941;-66
2022/06/29 01:21:51;;;;;;;7.03;6.20;;;;;;;22.82;70.25;99327.79;1761466;80;20897;-65
2022/06/29 01:24:22;;;;;;;7.37;6.12;;;;;;;22.81;70.29;99332.42;1781114;80;21002;-67
2022/06/29 01:26:49;;;;;;;6.75;6.00;;;;;;;22.83;70.30;99330.80;1772615;79;20995;-68
2022/06/29 01:29:16;;;;;;;7.70;5.90;;;;;;;22.82;70.14;99331.33;1769309;80;21114;-66
2022/06/29 01:31:44;;;;;;;10.82;6.58;;;;;;;22.82;70.21;99325.91;1775196;80;21092;-69
2022/06/29 01:34:10;;;;;;;8.73;6.87;;;;;;;22.82;70.48;99324.55;1762408;80;20960;-66
2022/06/29 01:36:37;;;;;;;10.20;7.25;;;;;;;22.87;70.82;99325.13;1779227;78;20917;-70
2022/06/29 01:39:03;;;;;;;7.62;6.75;;;;;;;22.90;71.00;99322.75;1791430;80;20871;-68
2022/06/29 01:41:30;;;;;;;9.88;7.17;;;;;;;22.94;71.05;99329.32;1765281;79;21194;-67
2022/06/29 01:43:57;;;;;;;8.98;7.03;;;;;;;22.95;70.80;99317.91;1777180;80;20986;-66
2022/06/29 01:46:23;;;;;;;9.45;6.30;;;;;;;22.96;70.76;99322.27;1777479;80;20880;-67
2022/06/29 01:48:50;;;;;;;10.68;6.87;;;;;;;22.95;71.02;99322.80;1759003;80;20937;-69
2022/06/29 01:51:17;;;;;;;10.25;7.15;;;;;;;22.97;71.13;99319.86;1787677;80;21434;-66
2022/06/29 01:53:43;;;;;;;12.78;6.55;;;;;;;22.97;71.17;99318.50;1759080;80;21139;-69
2022/06/29 01:56:10;;;;;;;6.58;6.05;;;;;;;22.94;70.67;99317.64;1766275;80;22218;-70
2022/06/29 01:58:36;;;;;;;8.98;6.12;;;;;;;22.84;70.44;99315.61;1760622;80;21392;-66
2022/06/29 02:01:04;;;;;;;7.62;6.62;;;;;;;22.74;70.22;99318.20;1759114;80;20902;-68
2022/06/29 02:03:32;;;;;;;7.17;5.97;;;;;;;22.63;70.25;99320.53;1759134;80;20965;-69
2022/06/29 02:05:58;;;;;;;11.10;6.40;;;;;;;22.58;70.96;99321.77;1759262;80;21125;-66
2022/06/29 02:08:25;;;;;;;10.32;7.45;;;;;;;22.57;71.52;99318.26;1785510;80;20965;-65
2022/06/29 02:10:52;;;;;;;8.70;6.60;;;;;;;22.58;72.11;99321.23;1759390;80;20894;-69
2022/06/29 02:13:18;;;;;;;9.50;7.25;;;;;;;22.62;72.34;99328.34;1780817;80;20993;-67
2022/06/29 02:15:45;;;;;;;11.25;6.75;;;;;;;22.64;72.18;99323.51;1779798;80;20944;-68
2022/06/29 02:18:12;;;;;;;11.48;7.30;;;;;;;22.66;72.02;99319.47;1763373;80;21200;-68
2022/06/29 02:20:39;;;;;;;9.18;6.65;;;;;;;22.65;71.32;99315.67;1759289;80;20985;-65
2022/06/29 02:23:05;;;;;;;9.25;7.00;;;;;;;22.60;71.13;99319.08;1775323;80;20940;-70
2022/06/29 02:25:32;;;;;;;11.68;7.28;;;;;;;22.54;71.04;99317.92;1766049;80;20870;-65
2022/06/29 02:27:59;;;;;;;11.05;7.22;;;;;;;22.48;70.89;99325.17;1786693;80;20890;-66
2022/06/29 02:35:46;;;;;;;10.28;6.80;;;;;;;22.30;71.47;99327.34;1779254;80;20966;-68
2022/06/29 02:38:12;;;;;;;12.63;6.85;;;;;;;22.30;71.79;99325.98;1788509;80;20934;-66
2022/06/29 02:40:39;;;;;;;9.10;6.50;;;;;;;22.32;72.02;99330.62;1773620;79;20894;-66
2022/06/29 02:43:05;;;;;;;10.40;6.58;;;;;;;22.36;72.17;99333.13;1779502;80;21201;-66
2022/06/29 02:45:32;;;;;;;15.75;7.03;;;;;;;22.38;72.09;99332.34;1759275;80;20914;-66
2022/06/29 02:47:58;;;;;;;9.55;6.87;;;;;;;22.41;71.99;99337.27;1739115;80;20930;-67
2022/06/29 02:50:25;;;;;;;11.80;6.78;;;;;;;22.44;72.04;99336.77;1753706;81;20934;-67
2022/06/29 02:52:51;;;;;;;9.63;6.50;;;;;;;22.49;71.89;99334.95;1732607;81;20938;-67
2022/06/29 02:55:18;;;;;;;12.28;7.42;;;;;;;22.57;72.18;99333.17;1732441;81;21215;-70
2022/06/29 02:57:44;;;;;;;13.08;7.45;;;;;;;22.66;72.56;99330.84;1756469;81;20987;-66
2022/06/29 03:00:14;;;;;;;10.60;6.80;;;;;;;22.74;72.85;99324.98;1751920;80;20982;-66
2022/06/29 03:02:40;;;;;;;13.70;7.67;;;;;;;22.88;72.98;99326.78;1771655;81;20955;-67
2022/06/29 03:05:08;;;;;;;17.57;7.37;;;;;;;22.98;73.03;99327.72;1740142;81;20955;-66
2022/06/29 03:07:35;;;;;;;15.28;7.15;;;;;;;23.10;72.88;99325.67;1737172;81;21139;-68
2022/06/29 03:10:02;;;;;;;10.23;7.00;;;;;;;;;;1738564;81;20976;-67
2022/06/29 03:12:29;;;;;;;9.38;8.43;;;;;;;23.34;72.05;99320.23;1757080;81;20966;-69
2022/06/29 03:14:56;;;;;;;16.40;14.93;;;;;;;23.46;71.68;99313.88;1732544;81;21529;-66
2022/06/29 03:17:22;;;;;;;11.08;9.35;;;;;;;23.60;71.44;99309.10;1762011;81;20859;-66
2022/06/29 03:19:49;;;;;;;13.72;7.83;;;;;;;23.76;71.10;99307.33;1732476;81;21119;-68
2022/06/29 03:22:15;;;;;;;11.50;8.20;;;;;;;23.92;70.52;99308.56;1758928;81;20914;-66
2022/06/29 03:24:42;;;;;;;8.98;8.03;;;;;;;24.12;69.98;99301.09;1734365;81;20931;-68
2022/06/29 03:27:08;;;;;;;10.05;7.70;;;;;;;24.32;69.46;99300.42;1732292;81;21021;-67
2022/06/29 03:29:35;;;;;;;14.95;7.60;;;;;;;24.53;69.04;99306.24;1748414;81;20833;-67
2022/06/29 03:32:02;;;;;;;18.12;8.38;;;;;;;24.77;68.54;99307.98;1770208;80;21195;-68
2022/06/29 03:34:29;;;;;;;14.47;7.58;;;;;;;25.01;67.79;99302.35;1740365;81;21539;-67
2022/06/29 03:36:55;;;;;;;11.80;8.18;;;;;;;25.26;66.84;99308.41;1732595;81;20939;-67
2022/06/29 03:39:21;;;;;;;11.00;7.62;;;;;;;25.48;66.03;99296.75;1732704;81;21042;-67
2022/06/29 03:41:48;;;;;;;15.18;7.75;;;;;;;25.70;65.18;99297.31;1735782;80;21567;-67
2022/06/29 03:44:14;;;;;;;14.55;8.15;;;;;;;25.97;64.39;99291.02;1765513;81;21236;-71
2022/06/29 03:46:41;;;;;;;11.88;7.67;;;;;;;26.43;63.20;99291.78;1745621;80;21481;-68
2022/06/29 03:49:08;;;;;;;16.87;7.35;;;;;;;27.01;61.81;99283.34;1773938;80;20950;-71
2022/06/29 03:51:34;;;;;;;14.95;7.62;;;;;;;27.59;60.26;99278.88;1759153;80;20962;-67
2022/06/29 03:54:02;;;;;;;12.90;7.30;;;;;;;28.11;58.60;99284.44;1771326;80;20981;-67
2022/06/29 03:56:28;;;;;;;13.40;7.67;;;;;;;28.39;57.18;99292.36;1765637;80;21029;-69
2022/06/29 03:58:55;;;;;;;13.22;8.95;;;;;;;28.58;56.42;99295.95;1770277;80;20827;-67
2022/06/29 04:01:22;;;;;;;20.88;8.58;;;;;;;28.91;55.36;99294.76;1769470;80;20925;-67
2022/06/29 04:03:48;;;;;;;11.57;7.92;;;;;;;29.25;54.29;99295.41;1777676;80;21016;-66
2022/06/29 04:06:16;;;;;;;15.72;7.67;;;;;;;29.52;53.44;99290.03;1785249;80;20911;-68
2022/06/29 04:08:43;;;;;;;13.65;7.78;;;;;;;29.78;52.47;99283.57;1787477;80;21367;-69
2022/06/29 04:11:55;;;;;;;19.60;7.40;;;;;;;30.15;51.58;99280.75;1772927;80;20885;-66
2022/06/29 04:13:39;;;;;;;19.95;8.45;;;;;;;30.62;50.48;99279.58;1764620;80;20988;-70
2022/06/29 04:16:05;;;;;;;19.07;7.92;;;;;;;31.14;49.02;99285.88;1769613;80;20867;-68
2022/06/29 04:18:33;;;;;;;26.05;8.03;;;;;;;31.67;48.03;99279.15;1788095;80;20906;-71
2022/06/29 04:21:05;;;;;;;24.45;7.72;;;;;;;32.26;46.76;99269.63;1770048;80;21177;-71
2022/06/29 04:23:33;;;;;;;16.65;7.10;;;;;;;32.86;45.54;99264.33;1768480;80;20913;-67
2022/06/29 04:25:59;;;;;;;19.50;7.10;;;;;;;33.49;43.79;99258.80;1773724;80;20915;-71
2022/06/29 04:28:26;;;;;;;20.17;7.75;;;;;;;34.02;42.69;99263.91;1786294;79;20879;-68
2022/06/29 04:30:52;;;;;;;16.45;6.37;;;;;;;34.57;41.60;99257.79;1782716;80;20993;-68
2022/06/29 04:33:19;;;;;;;16.65;6.87;;;;;;;35.11;39.99;99255.20;1759224;80;21225;-68
2022/06/29 04:35:46;;;;;;;11.28;6.83;;;;;;;35.66;38.88;99250.77;1784030;80;20871;-71
2022/06/29 04:38:12;;;;;;;13.98;6.03;;;;;;;36.30;37.71;99247.68;1780642;80;20889;-68
2022/06/29 04:40:39;;;;;;;15.95;6.40;;;;;;;36.93;36.31;99251.71;1771703;80;20985;-67
2022/06/29 04:43:06;;;;;;;11.63;6.50;;;;;;;37.42;35.19;99252.42;1763796;80;20927;-67
2022/06/29 04:48:17;;;;;;;17.40;10.63;;;;;;;38.34;33.50;99241.64;1784231;80;20879;-67
2022/06/29 04:50:44;;;;;;;11.30;6.12;;;;;;;38.78;33.04;99248.11;1775326;80;20873;-68
2022/06/29 04:53:10;;;;;;;9.18;5.08;;;;;;;39.27;31.66;99245.63;1759038;80;20929;-68
2022/06/29 04:55:37;;;;;;;14.13;5.53;;;;;;;39.78;30.34;99241.31;1759134;80;20909;-68
2022/06/29 04:58:03;;;;;;;13.20;5.95;;;;;;;40.14;29.32;99241.38;1778263;80;21224;-67
2022/06/29 05:00:30;;;;;;;11.57;5.03;;;;;;;40.49;28.92;99237.83;1767549;80;20927;-68
2022/06/29 05:02:56;;;;;;;17.42;6.22;;;;;;;40.97;28.40;99235.57;1769609;80;20889;-70
2022/06/29 05:05:23;;;;;;;14.28;5.08;;;;;;;41.46;27.75;99244.41;1765024;80;21005;-64
2022/06/29 05:07:49;;;;;;;13.93;5.17;;;;;;;41.67;27.24;99237.64;1773930;80;20941;-65
2022/06/29 05:10:16;;;;;;;9.83;4.83;;;;;;;41.92;27.23;99237.35;1776125;80;21288;-66
2022/06/29 05:12:43;;;;;;;8.88;5.33;;;;;;;42.34;26.79;99236.34;1759084;80;20917;-67
2022/06/29 05:15:11;;;;;;;12.00;5.30;;;;;;;42.80;26.17;99238.70;1781121;80;20915;-66
2022/06/29 05:17:37;;;;;;;11.22;4.72;;;;;;;43.16;25.85;99234.11;1776013;80;20905;-70
2022/06/29 05:20:06;;;;;;;12.35;5.15;;;;;;;43.55;24.90;99235.89;1778821;80;20859;-71
2022/06/29 05:22:32;;;;;;;9.98;4.60;;;;;;;43.87;24.53;99227.59;1781450;80;21134;-67
2022/06/29 05:24:59;;;;;;;11.18;5.12;;;;;;;44.14;23.70;99229.45;1777571;80;20975;-67
2022/06/29 05:27:25;;;;;;;6.90;5.03;;;;;;;44.37;23.64;99227.64;1762354;79;21411;-67
2022/06/29 05:29:52;;;;;;;6.30;4.80;;;;;;;44.76;22.79;99221.41;1774861;80;21393;-66
2022/06/29 05:32:18;;;;;;;11.43;4.92;;;;;;;45.03;22.40;99220.36;1764450;80;20922;-66
2022/06/29 05:34:45;;;;;;;12.93;4.87;;;;;;;45.24;22.56;99220.24;1759124;80;21250;-66
2022/06/29 05:37:11;;;;;;;8.23;4.95;;;;;;;45.72;22.20;99224.06;1763227;80;20977;-67
2022/06/29 05:39:38;;;;;;;17.75;5.72;;;;;;;46.13;21.69;99218.56;1780855;80;20989;-68
2022/06/29 05:42:05;;;;;;;11.15;5.40;;;;;;;46.49;21.26;99215.65;1774679;80;20901;-68
2022/06/29 05:44:31;;;;;;;8.93;5.25;;;;;;;46.55;20.83;99215.40;1760125;80;20901;-65
2022/06/29 05:46:58;;;;;;;9.30;4.37;;;;;;;46.67;20.79;99216.90;1779659;80;21229;-67
2022/06/29 05:49:25;;;;;;;5.58;3.80;;;;;;;46.98;20.62;99213.56;1733758;81;20910;-66
2022/06/29 05:51:51;;;;;;;4.87;3.70;;;;;;;47.16;20.05;99217.59;1763757;80;21144;-66
2022/06/29 05:54:18;;;;;;;6.92;4.10;;;;;;;47.05;19.33;99214.88;1771953;81;20994;-66
2022/06/29 05:56:44;;;;;;;7.67;3.75;;;;;;;47.17;19.66;99216.37;1766963;81;20899;-66
2022/06/29 05:59:11;;;;;;;5.72;3.67;;;;;;;47.22;19.43;99214.50;1732709;81;21191;-66
2022/06/29 06:01:37;;;;;;;3.65;3.30;;;;;;;47.37;19.31;99213.09;1750869;79;20868;-69
2022/06/29 06:04:04;;;;;;;6.85;3.80;;;;;;;47.50;19.29;99210.72;1768330;81;20935;-69
2022/06/29 06:06:31;;;;;;;3.70;3.40;;;;;;;47.61;19.22;99213.39;1781513;79;20923;-67
2022/06/29 06:08:57;;;;;;;4.15;3.83;;;;;;;47.50;18.85;99210.72;1762825;79;21113;-69
2022/06/29 06:11:24;;;;;;;9.98;3.90;;;;;;;47.47;19.10;99209.35;1769522;79;21115;-67
2022/06/29 06:13:50;;;;;;;6.22;3.95;;;;;;;47.53;19.20;99210.48;1761118;79;20993;-66
2022/06/29 06:16:17;;;;;;;3.83;3.52;;;;;;;47.80;19.36;99214.69;1743641;81;20971;-66
2022/06/29 06:18:44;;;;;;;3.70;3.42;;;;;;;48.04;18.88;99210.11;1734623;81;20935;-71
2022/06/29 06:21:10;;;;;;;7.87;3.90;;;;;;;48.20;18.46;99207.45;1742008;79;20904;-68
2022/06/29 06:23:37;;;;;;;5.62;3.60;;;;;;;48.33;18.32;99216.70;1766208;81;21312;-68
2022/06/29 06:26:03;;;;;;;3.47;3.00;;;;;;;48.60;17.09;99211.20;1764911;81;20916;-67
2022/06/29 06:28:30;;;;;;;3.47;3.20;;;;;;;48.60;17.09;99211.20;1769339;79;20928;-72
2022/06/29 06:30:57;;;;;;;3.08;2.87;;;;;;;48.57;16.95;99208.44;1750429;80;21086;-67
2022/06/29 06:33:23;;;;;;;3.17;2.87;;;;;;;48.88;16.45;99211.29;1762648;81;21050;-68
2022/06/29 06:35:50;;;;;;;2.77;2.60;;;;;;;48.98;15.84;99208.86;1769528;81;21240;-67
2022/06/29 06:38:17;;;;;;;2.90;2.70;;;;;;;48.81;15.37;99208.58;1767750;81;20924;-70
2022/06/29 06:43:29;;;;;;;;;;;;;;;48.22;16.13;99209.84;1757822;81;20988;-67
2022/06/29 06:45:56;;;;;;;4.95;3.65;;;;;;;48.48;16.25;99210.38;1757809;81;20131;-66
2022/06/29 06:48:23;;;;;;;3.12;2.83;;;;;;;48.72;15.80;99209.75;1747453;79;21127;-69
2022/06/29 06:50:50;;;;;;;4.92;3.30;;;;;;;48.58;15.85;99200.14;1757937;79;21022;-72
2022/06/29 06:53:16;;;;;;;5.40;3.12;;;;;;;48.42;16.03;99194.39;1767903;79;20872;-68
2022/06/29 06:55:43;;;;;;;3.05;2.85;;;;;;;48.06;16.00;99188.53;1750394;81;20931;-68
2022/06/29 06:58:10;;;;;;;3.17;2.98;;;;;;;47.86;16.56;99189.07;1757739;80;20942;-71
2022/06/29 07:00:38;;;;;;;3.15;2.95;;;;;;;47.58;16.48;99198.13;1771512;79;21133;-74
2022/06/29 07:03:05;;;;;;;2.85;2.65;;;;;;;47.08;16.62;99194.33;1755387;81;20907;-70
2022/06/29 07:05:31;;;;;;;3.12;2.77;;;;;;;46.67;17.37;99199.22;1767908;81;21512;-72
2022/06/29 07:07:58;;;;;;;3.42;3.12;;;;;;;46.69;17.48;99194.77;1753168;81;21496;-69
2022/06/29 07:10:24;;;;;;;2.85;2.67;;;;;;;46.53;16.93;99190.31;1750531;81;20920;-70
2022/06/29 07:12:51;;;;;;;3.08;2.87;;;;;;;46.41;17.03;99190.22;1749829;81;21143;-73
2022/06/29 07:15:18;;;;;;;3.35;3.05;;;;;;;46.46;16.94;99186.17;1772030;81;20864;-69
2022/06/29 07:17:44;;;;;;;3.02;2.70;;;;;;;46.54;16.67;99183.48;1754312;79;21193;-69
2022/06/29 07:20:11;;;;;;;3.35;3.15;;;;;;;46.67;16.62;99180.33;1766942;81;21072;-71
2022/06/29 07:22:38;;;;;;;3.30;2.92;;;;;;;46.97;16.76;99182.40;1723363;81;20872;-68
2022/06/29 07:25:07;;;;;;;8.20;3.42;;;;;;;47.64;16.36;99185.75;1704616;82;22594;-68
2022/06/29 07:27:33;;;;;;;4.35;3.00;;;;;;;47.85;16.13;99185.45;1725767;82;20911;-70
2022/06/29 07:30:00;;;;;;;3.30;3.10;;;;;;;47.79;15.99;99191.98;1709435;82;20956;-69
2022/06/29 07:32:26;;;;;;;3.08;2.80;;;;;;;47.79;15.99;99191.98;1719465;82;20967;-68
2022/06/29 07:34:53;;;;;;;4.00;3.22;;;;;;;48.09;15.91;99195.52;1708603;82;20947;-68
2022/06/29 07:37:20;;;;;;;2.95;2.75;;;;;;;48.69;15.53;99191.67;1715024;82;21241;-68
2022/06/29 07:39:46;;;;;;;3.00;2.80;;;;;;;49.15;15.17;99197.80;1697094;82;20894;-69
2022/06/29 07:42:13;;;;;;;3.33;2.98;;;;;;;48.91;14.26;99199.74;1697058;82;20902;-71
2022/06/29 07:44:39;;;;;;;3.27;3.00;;;;;;;48.25;14.97;99204.14;1697023;82;20926;-68
2022/06/29 07:47:07;;;;;;;3.30;3.10;;;;;;;47.97;15.56;99214.47;1697081;82;20889;-67
2022/06/29 07:49:33;;;;;;;3.22;2.90;;;;;;;47.90;15.27;99217.38;1694075;83;21245;-72
2022/06/29 07:51:59;;;;;;;2.70;2.50;;;;;;;47.49;15.47;99220.98;1702264;83;21031;-71
2022/06/29 07:54:26;;;;;;;2.45;2.25;;;;;;;47.50;15.36;99212.73;1704545;83;20868;-68
2022/06/29 07:56:53;;;;;;;2.67;2.45;;;;;;;47.74;15.51;99220.03;1693294;83;21025;-68
2022/06/29 07:59:20;;;;;;;3.05;2.10;;;;;;;48.20;14.57;99217.33;1708701;83;20934;-70
2022/06/29 08:01:46;;;;;;;2.87;2.67;;;;;;;48.70;14.23;99216.45;1698020;83;21256;-67
2022/06/29 08:04:13;;;;;;;2.87;2.67;;;;;;;48.92;14.34;99205.58;1706046;83;20938;-68
2022/06/29 08:06:39;;;;;;;4.60;2.50;;;;;;;48.77;13.78;99203.00;1721008;83;20978;-69
2022/06/29 08:09:06;;;;;;;4.35;2.52;;;;;;;48.86;14.14;99203.84;1693440;83;20967;-69
2022/06/29 08:11:33;;;;;;;3.47;2.22;;;;;;;48.85;13.50;99209.30;1712457;83;20883;-68
2022/06/29 08:14:00;;;;;;;4.65;2.75;;;;;;;48.56;13.59;99211.06;1701810;83;21130;-72
2022/06/29 08:16:26;;;;;;;2.70;2.50;;;;;;;48.35;13.99;99204.38;1722171;83;20876;-69
2022/06/29 08:18:53;;;;;;;2.70;2.50;;;;;;;49.14;13.90;99201.88;1696594;83;21002;-69
2022/06/29 08:21:20;;;;;;;2.65;2.20;;;;;;;49.61;13.12;99202.49;1707392;83;20975;-73
2022/06/29 08:23:48;;;;;;;2.70;2.50;;;;;;;49.05;13.40;99204.47;1699163;83;20891;-71
2022/06/29 08:26:14;;;;;;;2.33;2.15;;;;;;;48.74;13.64;99211.53;1705045;83;21346;-68
2022/06/29 08:28:41;;;;;;;2.02;1.92;;;;;;;48.74;13.45;99217.17;1701497;83;20935;-69
2022/06/29 08:31:07;;;;;;;3.72;2.47;;;;;;;48.75;13.69;99219.58;1693341;83;20947;-69
2022/06/29 08:33:34;;;;;;;5.95;2.77;;;;;;;48.96;13.93;99216.97;1693395;83;21450;-68
2022/06/29 08:36:03;;;;;;;2.60;2.33;;;;;;;48.82;13.98;99215.20;1714870;83;20884;-69
2022/06/29 08:38:30;;;;;;;2.30;2.20;;;;;;;48.78;13.50;99215.09;1711881;83;22038;-73
2022/06/29 08:40:57;;;;;;;2.55;2.40;;;;;;;48.61;13.47;99223.27;1693263;83;20959;-71
2022/06/29 08:43:23;;;;;;;2.00;1.90;;;;;;;48.21;13.71;99221.72;1693243;83;20939;-68
2022/06/29 08:45:52;;;;;;;3.10;2.80;;;;;;;46.93;14.31;99209.80;1693628;83;21013;-68
2022/06/29 08:48:18;;;;;;;4.62;2.80;;;;;;;45.16;15.68;99215.27;1698758;83;21304;-69
2022/06/29 08:50:53;;;;;;;2.87;2.67;;;;;;;44.06;16.77;99222.22;1707705;83;21137;-68
2022/06/29 08:53:21;;;;;;;3.33;2.30;;;;;;;43.90;16.89;99218.99;1718303;83;21524;-72
2022/06/29 08:55:51;;;;;;;2.80;2.60;;;;;;;43.30;17.74;99224.39;1722175;83;20887;-70
2022/06/29 08:58:24;;;;;;;3.40;3.20;;;;;;;42.43;18.63;99219.23;1701884;83;20947;-68
2022/06/29 09:00:51;;;;;;;4.28;2.85;;;;;;;41.68;19.18;99223.91;1709047;83;21019;-68
2022/06/29 09:03:21;;;;;;;2.30;2.10;;;;;;;41.14;19.41;99221.04;1693170;83;21226;-68
2022/06/29 09:05:57;;;;;;;4.10;2.47;;;;;;;41.90;19.29;99219.38;1704300;83;20931;-72
2022/06/29 09:08:21;;;;;;;3.17;2.30;;;;;;;43.72;18.00;99220.97;1720207;83;20930;-69
2022/06/29 09:10:49;;;;;;;2.50;2.15;;;;;;;45.33;16.09;99215.84;1703692;83;20931;-69
2022/06/29 09:13:21;;;;;;;3.92;2.10;;;;;;;46.40;14.85;99217.36;1702991;82;20995;-69
2022/06/29 09:15:48;;;;;;;1.87;1.77;;;;;;;46.58;14.44;99213.77;1693062;83;21327;-68
2022/06/29 09:18:30;;;;;;;2.00;1.90;;;;;;;47.09;13.49;99220.67;1693312;83;20892;-70
2022/06/29 09:21:01;;;;;;;2.58;2.40;;;;;;;46.86;13.77;99220.52;1693344;83;20896;-71
2022/06/29 09:23:30;;;;;;;3.20;2.17;;;;;;;46.13;13.84;99218.56;1712810;83;21536;-69
2022/06/29 09:25:57;;;;;;;2.52;2.20;;;;;;;46.38;13.89;99214.98;1693581;83;20935;-70
2022/06/29 09:28:28;;;;;;;2.90;2.33;;;;;;;46.97;13.95;99220.39;1710708;83;21213;-70
2022/06/29 09:30:55;;;;;;;2.60;2.02;;;;;;;47.68;13.10;99225.35;1715442;83;20995;-71
2022/06/29 09:33:24;;;;;;;2.37;2.17;;;;;;;47.87;12.53;99216.05;1703133;83;20974;-71
2022/06/29 09:36:16;;;;;;;4.00;2.60;;;;;;;48.14;12.67;99209.73;1703117;83;21513;-68
2022/06/29 09:38:41;;;;;;;3.45;2.20;;;;;;;49.09;12.49;99218.52;1705834;83;20923;-68
2022/06/29 09:41:14;;;;;;;2.47;2.10;;;;;;;48.98;12.34;99216.53;1701824;83;21509;-68
2022/06/29 09:43:43;;;;;;;3.08;2.70;;;;;;;48.05;12.73;99208.09;1710934;83;20990;-69
2022/06/29 09:46:12;;;;;;;2.25;2.15;;;;;;;47.76;13.06;99206.31;1693111;83;21007;-68
2022/06/29 09:48:40;;;;;;;2.17;1.90;;;;;;;48.22;12.54;99207.02;1701736;83;20970;-71
2022/06/29 09:54:04;;;;;;;2.02;1.82;;;;;;;48.18;12.58;99207.09;1706119;82;21136;-69
2022/06/29 09:56:32;;;;;;;2.85;2.12;;;;;;;48.84;12.38;99204.88;1699954;82;20980;-69
2022/06/29 09:59:00;;;;;;;3.27;2.10;;;;;;;48.56;12.20;99216.71;1738834;82;21147;-69
2022/06/29 10:04:15;;;;;;;2.87;2.62;;;;;;;48.03;12.37;99204.28;1705845;82;21012;-69
2022/06/29 10:06:42;;;;;;;2.12;2.02;;;;;;;47.65;12.89;99205.67;1697042;82;21141;-69
2022/06/29 10:09:10;;;;;;;2.37;2.20;;;;;;;46.61;13.85;99204.50;1712808;82;21490;-69
2022/06/29 10:14:58;;;;;;;2.95;2.27;;;;;;;43.15;16.49;99191.36;1727706;82;20919;-71
2022/06/29 10:17:42;;;;;;;2.55;2.27;;;;;;;41.64;17.94;99193.14;1672544;82;20886;-70
2022/06/29 10:20:31;;;;;;;7.42;2.65;;;;;;;40.67;18.95;99192.91;1697117;82;21134;-69
2022/06/29 10:22:57;;;;;;;3.08;2.22;;;;;;;40.14;19.42;99191.23;1724181;82;20907;-70
2022/06/29 10:25:27;;;;;;;2.40;2.30;;;;;;;39.80;19.48;99195.80;1736412;82;20892;-69
2022/06/29 10:28:18;;;;;;;2.58;2.37;;;;;;;39.35;20.27;99199.28;1697006;82;21072;-68
2022/06/29 10:30:45;;;;;;;2.67;2.47;;;;;;;38.84;21.09;99185.52;1733170;82;20904;-71
2022/06/29 10:33:37;;;;;;;2.42;2.30;;;;;;;38.47;21.27;99187.59;1707009;82;21749;-69
2022/06/29 10:36:07;;;;;;;2.42;2.33;;;;;;;38.27;21.23;99201.98;1726712;82;21410;-69
2022/06/29 10:39:07;;;;;;;2.77;2.62;;;;;;;38.14;21.68;99192.14;1697273;82;20953;-67
2022/06/29 10:45:02;;;;;;;3.02;2.60;;;;;;;37.66;22.33;99192.66;1753683;80;20986;-73
2022/06/29 10:47:30;;;;;;;2.62;2.42;;;;;;;37.40;22.63;99197.05;1753693;80;21138;-69
2022/06/29 10:50:23;;;;;;;3.27;2.95;;;;;;;37.08;22.92;99179.50;1757420;80;20929;-69
2022/06/29 10:52:55;;;;;;;2.72;2.52;;;;;;;36.92;23.46;99185.55;1761691;80;20969;-68
2022/06/29 10:55:23;;;;;;;2.80;2.60;;;;;;;36.74;23.81;99184.18;1792454;79;20915;-69
2022/06/29 10:57:50;;;;;;;3.12;2.85;;;;;;;36.67;24.11;99170.13;1773864;80;21084;-68
2022/06/29 11:00:21;;;;;;;2.92;2.72;;;;;;;36.58;24.53;99165.31;1761578;80;22077;-71
2022/06/29 11:02:48;;;;;;;4.37;2.75;;;;;;;36.43;24.18;99159.86;1779066;80;20898;-71
2022/06/29 11:05:15;;;;;;;3.05;2.85;;;;;;;36.36;24.59;99164.61;1765690;80;20937;-68
2022/06/29 11:13:28;;;;;;;2.72;2.60;;;;;;;36.42;24.87;99161.03;1782755;80;21250;-69
2022/06/29 11:15:57;;;;;;;3.22;2.92;;;;;;;36.36;24.75;99156.88;1792943;80;20918;-71
2022/06/29 11:18:31;;;;;;;2.98;2.77;;;;;;;36.31;24.74;99153.77;1771817;80;20942;-71
2022/06/29 11:21:02;;;;;;;3.37;2.72;;;;;;;36.24;24.66;99150.75;1782587;80;20966;-72
2022/06/29 11:23:33;;;;;;;2.75;2.55;;;;;;;36.18;25.36;99144.43;1771974;80;21568;-69
2022/06/29 11:26:05;;;;;;;3.00;2.80;;;;;;;36.12;25.35;99144.42;1781276;80;21833;-67
2022/06/29 11:28:33;;;;;;;3.65;2.90;;;;;;;36.07;25.22;99148.23;1792962;79;20891;-68
2022/06/29 11:31:06;;;;;;;3.50;3.08;;;;;;;35.88;25.77;99146.57;1784518;80;21033;-68
2022/06/29 11:33:36;;;;;;;3.15;2.85;;;;;;;35.83;26.06;99152.34;1774748;80;20884;-68
2022/06/29 11:36:11;;;;;;;5.10;3.00;;;;;;;35.82;25.98;99149.36;1769491;79;20965;-69
2022/06/29 11:38:42;;;;;;;3.35;3.05;;;;;;;35.76;26.05;99134.13;1774391;80;21148;-70
2022/06/29 11:41:17;;;;;;;3.45;3.15;;;;;;;35.70;26.19;99140.45;1791689;80;20899;-72
2022/06/29 11:43:44;;;;;;;2.92;2.72;;;;;;;35.66;26.35;99128.47;1761285;80;20898;-68
2022/06/29 11:46:20;;;;;;;4.17;2.67;;;;;;;35.68;26.57;99123.96;1762558;78;20913;-68
2022/06/29 11:51:57;;;;;;;2.75;2.35;;;;;;;35.70;26.41;99116.12;1761680;80;22076;-67
2022/06/29 11:54:48;;;;;;;3.08;2.65;;;;;;;35.71;26.92;99110.83;1761498;80;20922;-68
2022/06/29 11:57:17;;;;;;;3.70;2.77;;;;;;;35.62;26.62;99117.84;1767756;80;20881;-71
2022/06/29 11:59:45;;;;;;;2.80;2.30;;;;;;;35.50;26.31;99103.97;1761631;80;20969;-68
2022/06/29 12:02:13;;;;;;;3.08;2.87;;;;;;;35.41;26.65;99104.63;1772564;80;21511;-67
2022/06/29 12:04:41;;;;;;;3.05;2.77;;;;;;;35.30;26.42;99101.50;1781312;80;21235;-68
2022/06/29 12:07:16;;;;;;;3.25;2.60;;;;;;;35.18;26.43;99102.86;1785358;79;20889;-68